createdAt,value
2022-10-06T00:02:07.202Z,98887.92
2022-10-06T00:04:37.694Z,98890.41
2022-10-06T00:07:08.302Z,98894.59
2022-10-06T00:09:38.660Z,98892.34
2022-10-06T00:12:10.174Z,98889.89
2022-10-06T00:14:40.620Z,98895.10
2022-10-06T00:17:10.962Z,98903.56
2022-10-06T00:19:41.303Z,98903.88
2022-10-06T00:22:11.736Z,98919.05
2022-10-06T00:24:42.129Z,98923.58
2022-10-06T00:27:12.537Z,98926.04
2022-10-06T00:29:43.303Z,98936.36
2022-10-06T00:32:13.850Z,98933.98
2022-10-06T00:34:44.231Z,98936.80
2022-10-06T00:37:14.720Z,98942.55
2022-10-06T00:39:45.232Z,98945.71
2022-10-06T00:42:26.489Z,98945.94
2022-10-06T00:44:58.218Z,98952.57
2022-10-06T00:47:32.195Z,98956.78
2022-10-06T00:50:03.501Z,98961.96
2022-10-06T00:52:34.384Z,98963.34
2022-10-06T00:55:09.180Z,98970.27
2022-10-06T00:57:40.777Z,98967.07
2022-10-06T01:00:13.035Z,98971.17
2022-10-06T01:02:45.004Z,98970.05
2022-10-06T01:05:19.623Z,98969.65
2022-10-06T01:07:50.270Z,98967.72
2022-10-06T01:10:20.824Z,98968.20
2022-10-06T01:12:52.053Z,98975.45
2022-10-06T01:15:23.250Z,98972.43
2022-10-06T01:17:55.591Z,98973.41
2022-10-06T01:20:26.610Z,98970.58
2022-10-06T01:23:01.227Z,98974.20
2022-10-06T01:25:32.684Z,98974.31
2022-10-06T01:28:05.314Z,98985.05
2022-10-06T01:30:40.610Z,98992.46
2022-10-06T01:33:11.222Z,99000.40
2022-10-06T01:35:41.986Z,98998.42
2022-10-06T01:38:12.493Z,99004.98
2022-10-06T01:40:43.385Z,99011.70
2022-10-06T01:43:13.823Z,99013.01
2022-10-06T01:45:46.003Z,99020.33
2022-10-06T01:48:17.496Z,99026.03
2022-10-06T01:50:48.047Z,99031.95
2022-10-06T01:53:18.891Z,99043.45
2022-10-06T01:55:49.573Z,99046.52
2022-10-06T01:58:24.230Z,99050.52
2022-10-06T02:00:55.142Z,99048.83
2022-10-06T02:03:27.298Z,99046.74
2022-10-06T02:05:59.959Z,99044.97
2022-10-06T02:08:31.919Z,99051.24
2022-10-06T02:11:09.624Z,99046.86
2022-10-06T02:13:44.352Z,99057.48
2022-10-06T02:16:14.891Z,99060.72
2022-10-06T02:18:46.753Z,99061.20
2022-10-06T02:21:19.829Z,99064.77
2022-10-06T02:23:52.336Z,99062.65
2022-10-06T02:26:23.422Z,99061.02
2022-10-06T02:28:56.354Z,99068.95
2022-10-06T02:31:28.554Z,99067.63
2022-10-06T02:34:02.571Z,99075.88
2022-10-06T02:36:35.524Z,99077.55
2022-10-06T02:39:09.356Z,99077.26
2022-10-06T02:41:40.724Z,99080.39
2022-10-06T02:44:14.389Z,99082.86
2022-10-06T02:46:47.249Z,99090.19
2022-10-06T02:49:19.492Z,99101.41
2022-10-06T02:51:53.095Z,99102.84
2022-10-06T02:54:25.452Z,99105.13
2022-10-06T02:56:57.706Z,99108.77
2022-10-06T02:59:29.572Z,99112.26
2022-10-06T03:02:03.500Z,99114.73
2022-10-06T03:04:37.436Z,99122.61
2022-10-06T03:07:10.671Z,99127.88
2022-10-06T03:09:43.079Z,99131.35
2022-10-06T03:12:15.109Z,99141.59
2022-10-06T03:14:48.740Z,99143.00
2022-10-06T03:17:21.069Z,99140.95
2022-10-06T03:19:57.479Z,99145.89
2022-10-06T03:22:30.841Z,99150.11
2022-10-06T03:25:09.806Z,99157.97
2022-10-06T03:27:41.615Z,99162.85
2022-10-06T03:30:16.790Z,99170.18
2022-10-06T03:37:26.509Z,99192.50
2022-10-06T03:39:59.528Z,99195.52
2022-10-06T03:42:32.197Z,99197.10
2022-10-06T03:45:03.600Z,99206.88
2022-10-06T03:47:36.844Z,99213.13
2022-10-06T03:50:12.545Z,99211.55
2022-10-06T03:52:45.602Z,99214.01
2022-10-06T03:55:19.603Z,99220.48
2022-10-06T03:57:51.673Z,99225.41
2022-10-06T04:00:24.589Z,99232.21
2022-10-06T04:02:57.954Z,99230.65
2022-10-06T04:05:28.599Z,99230.31
2022-10-06T04:08:00.769Z,99237.98
2022-10-06T04:10:33.919Z,99239.08
2022-10-06T04:13:07.242Z,99249.19
2022-10-06T04:15:40.617Z,99257.74
2022-10-06T04:18:13.688Z,99265.09
2022-10-06T04:27:57.482Z,99269.23
2022-10-06T04:30:28.936Z,99267.14
2022-10-06T04:32:59.618Z,99276.33
2022-10-06T04:35:30.190Z,99289.83
2022-10-06T04:38:01.233Z,99284.88
2022-10-06T04:40:31.900Z,99289.47
2022-10-06T04:43:02.680Z,99314.05
2022-10-06T04:45:34.428Z,99315.65
2022-10-06T04:48:05.216Z,99312.91
2022-10-06T04:50:36.395Z,99316.77
2022-10-06T04:53:15.918Z,99319.94
2022-10-06T04:55:47.198Z,99320.86
2022-10-06T04:58:18.177Z,99324.91
2022-10-06T05:00:51.147Z,99325.57
2022-10-06T05:03:21.976Z,99333.73
2022-10-06T05:05:52.752Z,99342.43
2022-10-06T05:08:23.204Z,99346.59
2022-10-06T05:11:01.668Z,99352.31
2022-10-06T05:13:33.044Z,99358.54
2022-10-06T05:16:05.446Z,99363.52
2022-10-06T05:18:37.490Z,99364.35
2022-10-06T05:21:12.312Z,99370.02
2022-10-06T05:23:45.277Z,99370.46
2022-10-06T05:26:14.831Z,99377.80
2022-10-06T05:28:45.532Z,99387.38
2022-10-06T05:31:17.706Z,99397.13
2022-10-06T05:33:49.592Z,99403.58
2022-10-06T05:36:21.721Z,99405.70
2022-10-06T05:38:53.875Z,99410.59
2022-10-06T05:41:26.156Z,99408.54
2022-10-06T05:43:58.231Z,99413.23
2022-10-06T05:46:30.517Z,99420.34
2022-10-06T05:49:03.529Z,99421.20
2022-10-06T05:51:36.740Z,99435.25
2022-10-06T05:54:11.218Z,99438.89
2022-10-06T05:56:42.215Z,99439.09
2022-10-06T05:59:12.743Z,99442.90
2022-10-06T06:01:44.176Z,99452.95
2022-10-06T06:04:25.063Z,99450.70
2022-10-06T06:06:58.594Z,99461.09
2022-10-06T06:09:30.396Z,99469.21
2022-10-06T06:12:02.999Z,99469.02
2022-10-06T06:15:01.773Z,99470.23
2022-10-06T06:17:37.067Z,99475.23
2022-10-06T06:20:10.534Z,99482.65
2022-10-06T06:22:41.335Z,99485.57
2022-10-06T06:25:13.492Z,99483.62
2022-10-06T06:27:46.127Z,99486.36
2022-10-06T06:30:18.920Z,99490.16
2022-10-06T06:32:50.208Z,99495.67
2022-10-06T06:35:20.974Z,99505.00
2022-10-06T06:37:51.580Z,99513.20
2022-10-06T06:40:22.822Z,99519.21
2022-10-06T06:42:54.900Z,99523.44
2022-10-06T06:45:25.829Z,99525.86
2022-10-06T06:48:05.864Z,99528.43
2022-10-06T06:50:37.011Z,99535.84
2022-10-06T06:53:09.940Z,99541.39
2022-10-06T06:55:52.025Z,99543.66
2022-10-06T06:58:24.740Z,99553.41
2022-10-06T07:00:55.220Z,99553.77
2022-10-06T07:03:55.632Z,99551.30
2022-10-06T07:06:18.215Z,99554.86
2022-10-06T07:08:50.654Z,99565.86
2022-10-06T07:11:22.921Z,99568.11
2022-10-06T07:13:57.619Z,99565.39
2022-10-06T07:16:45.983Z,99568.34
2022-10-06T07:19:34.851Z,99574.56
2022-10-06T07:22:27.345Z,99580.80
2022-10-06T07:25:07.853Z,99579.95
2022-10-06T07:27:42.989Z,99578.79
2022-10-06T07:30:19.247Z,99574.86
2022-10-06T07:32:53.668Z,99578.87
2022-10-06T07:35:26.201Z,99583.68
2022-10-06T07:37:57.978Z,99589.69
2022-10-06T07:40:28.679Z,99597.02
2022-10-06T07:42:59.115Z,99595.21
2022-10-06T07:45:39.587Z,99601.97
2022-10-06T07:48:30.368Z,99595.59
2022-10-06T07:51:03.154Z,99601.14
2022-10-06T07:53:39.005Z,99604.21
2022-10-06T07:56:23.971Z,99604.14
2022-10-06T07:58:58.797Z,99607.39
2022-10-06T08:01:30.190Z,99614.70
2022-10-06T08:04:02.388Z,99622.73
2022-10-06T08:06:32.713Z,99625.23
2022-10-06T08:09:03.140Z,99632.80
2022-10-06T08:11:34.039Z,99638.89
2022-10-06T08:14:04.640Z,99638.96
2022-10-06T08:16:35.249Z,99643.00
2022-10-06T08:19:05.758Z,99641.79
2022-10-06T08:21:36.244Z,99645.50
2022-10-06T08:24:06.859Z,99641.19
2022-10-06T08:26:37.225Z,99642.57
2022-10-06T08:29:07.542Z,99648.42
2022-10-06T08:31:37.955Z,99656.39
2022-10-06T08:34:12.070Z,99663.56
2022-10-06T08:37:02.191Z,99665.77
2022-10-06T08:39:34.598Z,99665.75
2022-10-06T08:42:05.265Z,99664.08
2022-10-06T08:44:39.966Z,99666.72
2022-10-06T08:47:15.493Z,99667.70
2022-10-06T08:49:47.201Z,99666.76
2022-10-06T08:52:37.305Z,99672.06
2022-10-06T08:55:15.773Z,99679.61
2022-10-06T08:57:51.850Z,99682.10
2022-10-06T09:00:22.894Z,99689.66
2022-10-06T09:02:55.422Z,99689.90
2022-10-06T09:05:29.701Z,99690.29
2022-10-06T09:08:16.155Z,99693.35
2022-10-06T09:10:54.495Z,99690.72
2022-10-06T09:13:28.768Z,99695.39
2022-10-06T09:16:01.448Z,99691.70
2022-10-06T09:19:03.533Z,99692.55
2022-10-06T09:21:31.656Z,99696.14
2022-10-06T09:24:06.168Z,99698.64
2022-10-06T09:26:37.541Z,99702.37
2022-10-06T09:29:08.245Z,99697.89
2022-10-06T09:31:42.120Z,99699.15
2022-10-06T09:34:24.628Z,99699.90
2022-10-06T09:37:04.108Z,99701.64
2022-10-06T09:39:37.937Z,99700.78
2022-10-06T09:42:14.442Z,99703.95
2022-10-06T09:44:55.038Z,99706.79
2022-10-06T09:47:44.708Z,99711.67
2022-10-06T09:50:22.044Z,99709.72
2022-10-06T09:53:16.093Z,99707.84
2022-10-06T09:55:52.029Z,99704.67
2022-10-06T09:58:25.544Z,99709.42
2022-10-06T10:00:57.995Z,99711.91
2022-10-06T10:03:27.242Z,99712.70
2022-10-06T10:06:00.008Z,99717.34
2022-10-06T10:08:31.295Z,99714.95
2022-10-06T10:11:36.068Z,99716.05
2022-10-06T10:14:15.518Z,99712.60
2022-10-06T10:16:50.919Z,99716.98
2022-10-06T10:19:27.920Z,99712.64
2022-10-06T10:21:59.952Z,99713.48
2022-10-06T10:24:47.670Z,99710.92
2022-10-06T10:27:22.133Z,99709.66
2022-10-06T10:30:01.717Z,99707.84
2022-10-06T10:32:44.248Z,99710.94
2022-10-06T10:35:18.073Z,99710.66
2022-10-06T10:37:52.036Z,99709.91
2022-10-06T10:40:32.700Z,99711.19
2022-10-06T10:43:13.847Z,99715.05
2022-10-06T10:45:48.158Z,99717.02
2022-10-06T10:48:22.221Z,99718.33
2022-10-06T10:50:58.791Z,99720.04
2022-10-06T10:53:38.855Z,99718.62
2022-10-06T10:56:16.152Z,99720.19
2022-10-06T10:58:48.144Z,99719.03
2022-10-06T11:01:32.423Z,99722.64
2022-10-06T11:04:03.415Z,99722.23
2022-10-06T11:06:46.493Z,99718.31
2022-10-06T11:09:18.846Z,99714.95
2022-10-06T11:12:00.122Z,99714.15
2022-10-06T11:14:45.605Z,99717.02
2022-10-06T11:17:23.224Z,99716.44
2022-10-06T11:19:57.815Z,99713.39
2022-10-06T11:22:34.174Z,99711.47
2022-10-06T11:25:19.877Z,99713.98
2022-10-06T11:27:58.234Z,99715.15
2022-10-06T11:30:31.242Z,99717.80
2022-10-06T11:33:09.393Z,99720.87
2022-10-06T11:35:43.351Z,99712.64
2022-10-06T11:38:21.005Z,99712.08
2022-10-06T11:41:09.868Z,99709.52
2022-10-06T11:43:47.667Z,99702.95
2022-10-06T11:46:34.922Z,99701.75
2022-10-06T11:49:51.446Z,99698.58
2022-10-06T11:52:42.270Z,99693.20
2022-10-06T11:55:22.764Z,99688.98
2022-10-06T12:01:11.578Z,99680.48
2022-10-06T12:04:07.340Z,99682.21
2022-10-06T12:07:11.326Z,99684.19
2022-10-06T12:09:53.047Z,99683.96
2022-10-06T12:13:31.799Z,99677.70
2022-10-06T12:19:24.308Z,99673.26
2022-10-06T12:28:21.770Z,99673.29
2022-10-06T12:31:05.925Z,99664.88
2022-10-06T12:33:42.176Z,99660.88
2022-10-06T12:36:20.362Z,99662.69
2022-10-06T12:39:21.161Z,99664.63
2022-10-06T12:42:02.341Z,99662.70
2022-10-06T12:44:38.038Z,99662.64
2022-10-06T12:47:15.431Z,99659.30
2022-10-06T12:49:49.280Z,99655.08
2022-10-06T12:52:40.464Z,99653.53
2022-10-06T12:55:18.896Z,99649.95
2022-10-06T12:57:53.346Z,99655.30
2022-10-06T13:00:34.610Z,99654.29
2022-10-06T13:03:07.039Z,99657.76
2022-10-06T13:05:38.354Z,99659.12
2022-10-06T13:08:21.362Z,99653.86
2022-10-06T13:10:51.805Z,99651.43
2022-10-06T13:13:25.994Z,99648.79
2022-10-06T13:16:00.497Z,99649.88
2022-10-06T13:18:32.812Z,99645.92
2022-10-06T13:21:03.467Z,99648.81
2022-10-06T13:23:34.707Z,99645.83
2022-10-06T13:26:06.314Z,99643.72
2022-10-06T13:28:49.792Z,99644.74
2022-10-06T13:31:26.724Z,99643.08
2022-10-06T13:34:00.676Z,99642.45
2022-10-06T13:36:32.386Z,99646.67
2022-10-06T13:39:03.196Z,99645.34
2022-10-06T13:41:36.150Z,99643.80
2022-10-06T13:44:25.667Z,99643.45
2022-10-06T13:46:58.339Z,99646.58
2022-10-06T13:49:30.562Z,99647.77
2022-10-06T13:52:03.443Z,99649.34
2022-10-06T13:54:39.070Z,99647.29
2022-10-06T13:57:35.723Z,99642.45
2022-10-06T14:00:12.808Z,99645.15
2022-10-06T14:02:43.621Z,99645.81
2022-10-06T14:05:26.915Z,99650.05
2022-10-06T14:08:00.872Z,99648.66
2022-10-06T14:10:35.701Z,99649.27
2022-10-06T14:13:09.061Z,99642.85
2022-10-06T14:15:47.849Z,99637.26
2022-10-06T14:18:24.439Z,99640.47
2022-10-06T14:20:57.036Z,99644.23
2022-10-06T14:23:51.535Z,99642.87
2022-10-06T14:26:26.968Z,99641.02
2022-10-06T14:28:57.883Z,99641.59
2022-10-06T14:31:29.725Z,99641.30
2022-10-06T14:34:00.449Z,99638.57
2022-10-06T14:36:33.173Z,99639.80
2022-10-06T14:39:05.138Z,99637.57
2022-10-06T14:41:35.777Z,99636.88
2022-10-06T14:44:09.483Z,99635.12
2022-10-06T14:46:41.285Z,99631.79
2022-10-06T14:49:13.356Z,99635.41
2022-10-06T14:51:44.928Z,99634.30
2022-10-06T14:54:15.667Z,99631.61
2022-10-06T14:56:46.247Z,99631.17
2022-10-06T14:59:18.149Z,99625.34
2022-10-06T15:01:49.644Z,99626.66
2022-10-06T15:04:24.261Z,99631.02
2022-10-06T15:07:12.231Z,99632.58
2022-10-06T15:09:43.046Z,99630.67
2022-10-06T15:12:13.963Z,99631.02
2022-10-06T15:14:44.421Z,99628.40
2022-10-06T15:17:14.964Z,99626.85
2022-10-06T15:19:45.579Z,99627.83
2022-10-06T15:22:15.988Z,99621.15
2022-10-06T15:24:50.395Z,99622.69
2022-10-06T15:27:38.230Z,99621.85
2022-10-06T15:30:11.288Z,99622.66
2022-10-06T15:32:41.944Z,99619.86
2022-10-06T15:35:12.630Z,99616.35
2022-10-06T15:37:43.020Z,99614.63
2022-10-06T15:40:13.872Z,99611.99
2022-10-06T15:42:44.308Z,99615.23
2022-10-06T15:45:15.202Z,99614.33
2022-10-06T15:47:46.812Z,99612.72
2022-10-06T15:50:18.969Z,99613.50
2022-10-06T15:52:50.423Z,99613.09
2022-10-06T15:55:21.108Z,99617.05
2022-10-06T15:57:52.708Z,99617.89
2022-10-06T16:00:23.620Z,99622.01
2022-10-06T16:02:54.092Z,99620.05
2022-10-06T16:05:45.937Z,99620.18
2022-10-06T16:08:16.603Z,99619.43
2022-10-06T16:10:51.803Z,99619.88
2022-10-06T16:13:22.476Z,99619.95
2022-10-06T16:15:56.115Z,99621.60
2022-10-06T16:18:28.419Z,99624.64
2022-10-06T16:20:58.874Z,99624.52
2022-10-06T16:23:29.249Z,99621.42
2022-10-06T16:26:03.859Z,99623.05
2022-10-06T16:28:34.552Z,99626.92
2022-10-06T16:31:06.171Z,99621.21
2022-10-06T16:33:36.805Z,99621.06
2022-10-06T16:36:08.446Z,99617.99
2022-10-06T16:38:38.901Z,99620.47
2022-10-06T16:41:09.946Z,99624.34
2022-10-06T16:43:41.456Z,99621.79
2022-10-06T16:46:13.087Z,99628.11
2022-10-06T16:48:45.183Z,99626.09
2022-10-06T16:51:17.265Z,99629.09
2022-10-06T16:53:49.444Z,99631.92
2022-10-06T16:56:21.702Z,99635.77
2022-10-06T16:58:54.249Z,99633.23
2022-10-06T17:01:25.760Z,99639.34
2022-10-06T17:04:02.804Z,99635.73
2022-10-06T17:06:34.510Z,99634.38
2022-10-06T17:09:05.158Z,99638.04
2022-10-06T17:11:36.042Z,99635.81
2022-10-06T17:14:06.788Z,99639.48
2022-10-06T17:16:39.721Z,99639.13
2022-10-06T17:19:08.967Z,99642.08
2022-10-06T17:21:46.349Z,99644.17
2022-10-06T17:24:18.685Z,99645.23
2022-10-06T17:26:50.313Z,99646.60
2022-10-06T17:29:22.288Z,99644.52
2022-10-06T17:31:59.927Z,99647.13
2022-10-06T17:34:32.849Z,99642.11
2022-10-06T17:37:04.245Z,99644.89
2022-10-06T17:39:34.701Z,99646.81
2022-10-06T17:42:05.302Z,99647.34
2022-10-06T17:44:35.740Z,99646.47
2022-10-06T17:47:06.969Z,99648.73
2022-10-06T17:49:38.031Z,99650.64
2022-10-06T17:52:08.460Z,99651.52
2022-10-06T17:54:39.058Z,99655.32
2022-10-06T17:57:10.003Z,99653.75
2022-10-06T17:59:40.475Z,99658.45
2022-10-06T18:02:14.085Z,99656.70
2022-10-06T18:04:47.650Z,99655.66
2022-10-06T18:07:18.430Z,99655.49
2022-10-06T18:10:09.093Z,99653.59
2022-10-06T18:12:41.719Z,99653.77
2022-10-06T18:15:13.079Z,99652.38
2022-10-06T18:17:43.650Z,99650.14
2022-10-06T18:20:16.055Z,99650.66
2022-10-06T18:22:48.170Z,99653.77
2022-10-06T18:25:24.494Z,99654.30
2022-10-06T18:27:57.226Z,99656.38
2022-10-06T18:30:29.326Z,99650.83
2022-10-06T18:35:29.925Z,99648.91
2022-10-06T18:36:14.739Z,99651.16
2022-10-06T18:38:47.373Z,99650.65
2022-10-06T18:41:20.632Z,99649.79
2022-10-06T18:43:51.692Z,99649.79
2022-10-06T18:46:40.933Z,99646.67
2022-10-06T18:49:15.711Z,99648.92
2022-10-06T18:51:47.492Z,99646.14
2022-10-06T18:54:22.082Z,99642.33
2022-10-06T18:56:53.049Z,99640.44
2022-10-06T18:59:26.368Z,99644.92
2022-10-06T19:01:58.114Z,99646.15
2022-10-06T19:04:29.094Z,99641.80
2022-10-06T19:06:59.465Z,99640.26
2022-10-06T19:09:29.915Z,99640.42
2022-10-06T19:12:01.794Z,99640.59
2022-10-06T19:14:35.802Z,99642.85
2022-10-06T19:17:08.980Z,99642.33
2022-10-06T19:19:39.430Z,99642.16
2022-10-06T19:22:10.938Z,99643.20
2022-10-06T19:24:43.787Z,99645.27
2022-10-06T19:27:16.347Z,99649.41
2022-10-06T19:29:51.410Z,99649.42
2022-10-06T19:32:24.219Z,99649.77
2022-10-06T19:34:58.747Z,99648.38
2022-10-06T19:37:30.057Z,99650.81
2022-10-06T19:40:00.643Z,99653.05
2022-10-06T19:42:49.473Z,99652.36
2022-10-06T19:45:21.009Z,99647.34
2022-10-06T19:47:52.005Z,99651.50
2022-10-06T19:50:22.655Z,99652.89
2022-10-06T19:52:53.917Z,99652.54
2022-10-06T19:55:25.606Z,99649.08
2022-10-06T19:57:56.003Z,99648.20
2022-10-06T20:00:26.539Z,99653.92
2022-10-06T20:02:56.896Z,99648.37
2022-10-06T20:05:27.304Z,99653.05
2022-10-06T20:07:57.801Z,99650.45
2022-10-06T20:10:28.451Z,99652.87
2022-10-06T20:12:59.238Z,99653.05
2022-10-06T20:15:29.740Z,99652.19
2022-10-06T20:18:00.116Z,99654.43
2022-10-06T20:20:30.821Z,99653.05
2022-10-06T20:23:01.629Z,99654.77
2022-10-06T20:25:34.106Z,99652.35
2022-10-06T20:28:08.924Z,99652.00
2022-10-06T20:30:42.228Z,99654.60
2022-10-06T20:33:13.048Z,99650.77
2022-10-06T20:35:43.542Z,99648.34
2022-10-06T20:38:14.645Z,99652.49
2022-10-06T20:40:49.270Z,99654.05
2022-10-06T20:43:21.196Z,99656.28
2022-10-06T20:45:55.596Z,99655.41
2022-10-06T20:48:28.858Z,99653.67
2022-10-06T20:50:59.677Z,99647.78
2022-10-06T20:53:32.076Z,99648.65
2022-10-06T20:56:04.642Z,99648.65
2022-10-06T20:58:35.728Z,99645.70
2022-10-06T21:01:08.300Z,99645.16
2022-10-06T21:03:44.672Z,99643.95
2022-10-06T21:06:16.801Z,99642.05
2022-10-06T21:08:48.459Z,99640.81
2022-10-06T21:11:20.468Z,99642.88
2022-10-06T21:13:51.758Z,99642.35
2022-10-06T21:16:24.211Z,99635.41
2022-10-06T21:18:55.152Z,99635.92
2022-10-06T21:21:25.708Z,99638.36
2022-10-06T21:23:56.254Z,99640.94
2022-10-06T21:26:27.844Z,99639.39
2022-10-06T21:28:58.472Z,99634.52
2022-10-06T21:31:30.586Z,99636.77
2022-10-06T21:34:02.605Z,99636.41
2022-10-06T21:36:33.735Z,99634.48
2022-10-06T21:39:06.004Z,99635.85
2022-10-06T21:41:39.255Z,99633.74
2022-10-06T21:44:11.796Z,99628.33
2022-10-06T21:46:43.493Z,99630.36
2022-10-06T21:49:15.858Z,99631.71
2022-10-06T21:51:48.329Z,99632.73
2022-10-06T21:54:19.789Z,99630.99
2022-10-06T21:56:51.736Z,99629.58
2022-10-06T21:59:22.276Z,99627.84
2022-10-06T22:01:52.955Z,99622.45
2022-10-06T22:04:24.166Z,99618.27
2022-10-06T22:06:54.793Z,99622.39
2022-10-06T22:09:25.309Z,99622.19
2022-10-06T22:11:55.908Z,99622.16
2022-10-06T22:14:26.529Z,99618.17
2022-10-06T22:16:57.188Z,99617.48
2022-10-06T22:19:27.732Z,99611.95
2022-10-06T22:21:59.822Z,99614.04
2022-10-06T22:24:32.287Z,99611.95
2022-10-06T22:27:04.832Z,99609.53
2022-10-06T22:29:36.782Z,99610.41
2022-10-06T22:32:09.875Z,99605.75
2022-10-06T22:34:41.891Z,99604.05
2022-10-06T22:37:13.485Z,99602.70
2022-10-06T22:39:45.172Z,99604.45
2022-10-06T22:42:18.138Z,99601.18
2022-10-06T22:44:51.086Z,99601.75
2022-10-06T22:47:22.841Z,99595.89
2022-10-06T22:49:55.608Z,99590.72
2022-10-06T22:52:29.053Z,99590.20
2022-10-06T22:55:01.059Z,99586.05
2022-10-06T22:57:32.931Z,99580.68
2022-10-06T23:00:05.862Z,99582.77
2022-10-06T23:02:39.904Z,99575.67
2022-10-06T23:05:12.872Z,99569.96
2022-10-06T23:07:45.659Z,99566.66
2022-10-06T23:10:18.988Z,99569.78
2022-10-06T23:12:51.272Z,99567.55
2022-10-06T23:15:22.944Z,99564.45
2022-10-06T23:17:55.258Z,99563.60
2022-10-06T23:30:43.580Z,99549.05
2022-10-06T23:33:14.182Z,99548.17
2022-10-06T23:35:44.755Z,99545.56
2022-10-06T23:38:15.455Z,99543.66
2022-10-06T23:40:46.179Z,99543.66
2022-10-06T23:43:16.764Z,99541.94
2022-10-06T23:45:47.601Z,99539.68
2022-10-06T23:48:19.279Z,99540.00
2022-10-06T23:50:59.977Z,99541.02
2022-10-06T23:53:31.719Z,99540.82
